Time;durP1;ratioP1;P1;durP2;ratioP2;P2;SDS_P1;SDS_P2;PMS_P1;PMS_P2;Temp;Humidity;BMP_temperature;BMP_pressure;BME280_temperature;BME280_humidity;BME280_pressure;Samples;Min_cycle;Max_cycle;Signal;HPM_P1;HPM_P2
2021/12/06 00:00:12;;;;;;;;;;;;;;;23.67;64.81;95904.69;608656;233;67119;-61
2021/12/06 00:02:40;;;;;;;;;;;;;;;23.67;64.65;95887.81;608430;233;64661;-61
2021/12/06 00:05:08;;;;;;;;;;;;;;;23.66;62.82;95887.03;608648;233;64891;-61
2021/12/06 00:07:38;;;;;;;;;;;;;;;23.65;63.96;95896.19;608719;233;66966;-61
2021/12/06 00:10:06;;;;;;;;;;;;;;;23.66;63.76;95884.34;608631;233;67685;-61
2021/12/06 00:12:34;;;;;;;;;;;;;;;23.65;64.66;95874.73;608642;233;62775;-61
2021/12/06 00:15:02;;;;;;;;;;;;;;;23.65;64.08;95850.59;608651;233;67490;-64
2021/12/06 00:17:29;;;;;;;;;;;;;;;23.65;63.83;95855.15;608617;233;66965;-64
2021/12/06 00:19:57;;;;;;;;;;;;;;;23.64;63.22;95840.95;608706;233;62768;-65
2021/12/06 00:22:25;;;;;;;;;;;;;;;23.65;64.25;95836.38;608628;233;64897;-64
2021/12/06 00:24:54;;;;;;;;;;;;;;;23.63;65.42;95850.12;608668;233;64903;-64
2021/12/06 00:27:22;;;;;;;;;;;;;;;23.63;64.11;95858.16;608651;233;62818;-65
2021/12/06 00:29:50;;;;;;;;;;;;;;;23.61;65.35;95860.36;608683;233;67757;-64
2021/12/06 00:32:19;;;;;;;;;;;;;;;23.61;63.36;95867.63;608624;233;66864;-64
2021/12/06 00:34:46;;;;;;;;;;;;;;;23.62;64.35;95886.06;608688;233;65200;-64
2021/12/06 00:37:19;;;;;;;;;;;;;;;23.61;66.10;95894.45;608631;233;65019;-64
2021/12/06 00:39:48;;;;;;;;;;;;;;;23.60;64.27;95890.98;608656;233;65056;-64
2021/12/06 00:42:16;;;;;;;;;;;;;;;23.60;64.79;95895.53;608650;233;66032;-63
2021/12/06 00:44:44;;;;;;;;;;;;;;;23.59;65.73;95904.69;608618;233;67037;-63
2021/12/06 00:47:12;;;;;;;;;;;;;;;23.58;64.34;95900.44;608677;233;65685;-63
2021/12/06 00:49:39;;;;;;;;;;;;;;;23.58;64.44;95905.80;608623;233;66036;-63
2021/12/06 00:52:07;;;;;;;;;;;;;;;23.58;63.61;95898.54;608604;233;67239;-63
2021/12/06 00:54:35;;;;;;;;;;;;;;;23.58;63.90;95893.18;608666;233;66775;-63
2021/12/06 00:57:05;;;;;;;;;;;;;;;23.56;65.93;95902.64;608611;233;65157;-63
2021/12/06 00:59:33;;;;;;;;;;;;;;;23.56;63.61;95916.83;608702;233;65031;-63
2021/12/06 01:02:01;;;;;;;;;;;;;;;23.57;64.75;95921.11;608634;233;68070;-64
2021/12/06 01:04:31;;;;;;;;;;;;;;;23.55;66.36;95914.48;608696;233;43783;-60
2021/12/06 01:06:59;;;;;;;;;;;;;;;23.54;65.28;95919.03;608643;233;67213;-60
2021/12/06 01:09:26;;;;;;;;;;;;;;;23.53;65.63;95916.68;608659;233;67674;-60
2021/12/06 01:11:54;;;;;;;;;;;;;;;23.52;64.58;95901.67;608619;233;64936;-60
2021/12/06 01:14:22;;;;;;;;;;;;;;;23.52;64.68;95913.21;608695;233;64602;-60
2021/12/06 01:16:50;;;;;;;;;;;;;;;23.52;64.81;95915.08;608641;233;64789;-60
2021/12/06 01:19:17;;;;;;;;;;;;;;;23.50;65.16;95928.82;608640;233;63174;-60
2021/12/06 01:22:04;;;;;;;;;;;;;;;23.51;66.19;95930.39;608605;233;67012;-60
2021/12/06 01:24:27;;;;;;;;;;;;;;;23.51;65.30;95940.33;608031;233;67212;-60
2021/12/06 01:27:09;;;;;;;;;;;;;;;23.49;65.69;95936.08;608403;233;65003;-60
2021/12/06 01:29:45;;;;;;;;;;;;;;;23.49;66.58;95941.44;608028;233;67370;-60
2021/12/06 01:32:02;;;;;;;;;;;;;;;23.48;65.03;95933.70;607744;233;67626;-60
2021/12/06 01:39:44;;;;;;;;;;;;;;;23.45;66.45;95910.98;601490;235;68017;-60
2021/12/06 01:42:12;;;;;;;;;;;;;;;23.45;66.46;95919.02;604156;233;62592;-61
2021/12/06 01:44:42;;;;;;;;;;;;;;;23.43;66.19;95923.90;608674;233;67223;-60
2021/12/06 01:47:13;;;;;;;;;;;;;;;23.44;65.44;95922.03;608492;233;47864;-60
2021/12/06 01:49:42;;;;;;;;;;;;;;;23.44;66.19;95924.72;608623;233;63031;-60
2021/12/06 01:52:11;;;;;;;;;;;;;;;23.44;66.52;95913.99;608638;233;67666;-60
2021/12/06 01:54:39;;;;;;;;;;;;;;;23.42;66.50;95918.87;608492;233;67068;-61
2021/12/06 01:57:08;;;;;;;;;;;;;;;23.41;66.78;95902.00;608647;233;62913;-60
2021/12/06 01:59:35;;;;;;;;;;;;;;;23.40;66.77;95918.39;608644;233;67274;-61
2021/12/06 02:02:04;;;;;;;;;;;;;;;23.41;66.24;95902.00;608681;233;66981;-60
2021/12/06 02:04:33;;;;;;;;;;;;;;;23.39;67.24;95890.79;608679;233;65051;-61
2021/12/06 02:07:01;;;;;;;;;;;;;;;23.39;66.52;95911.45;608688;233;67246;-60
2021/12/06 02:09:29;;;;;;;;;;;;;;;23.39;66.45;95896.15;608690;233;66747;-61
2021/12/06 02:12:00;;;;;;;;;;;;;;;23.38;66.93;95891.09;608588;233;42594;-61
2021/12/06 02:14:50;;;;;;;;;;;;;;;23.37;67.15;95884.94;608632;233;67262;-60
2021/12/06 02:17:22;;;;;;;;;;;;;;;23.37;66.69;95897.56;608092;233;66184;-60
2021/12/06 02:19:47;;;;;;;;;;;;;;;23.36;66.84;95890.63;608313;233;67670;-60
2021/12/06 02:22:15;;;;;;;;;;;;;;;23.36;66.96;95901.36;608709;233;67362;-60
2021/12/06 02:24:43;;;;;;;;;;;;;;;23.35;67.12;95891.72;608640;233;65629;-60
2021/12/06 02:27:12;;;;;;;;;;;;;;;23.34;66.83;95904.34;608669;233;65223;-60
2021/12/06 02:29:41;;;;;;;;;;;;;;;23.33;66.56;95894.73;608680;233;64788;-60
2021/12/06 02:32:11;;;;;;;;;;;;;;;23.33;66.69;95902.77;608684;233;66654;-61
2021/12/06 02:34:40;;;;;;;;;;;;;;;23.33;66.28;95896.62;608760;233;65121;-60
2021/12/06 02:37:09;;;;;;;;;;;;;;;23.33;66.73;95904.67;608586;233;64430;-60
2021/12/06 02:39:38;;;;;;;;;;;;;;;23.32;66.85;95906.53;608697;233;66831;-60
2021/12/06 02:42:07;;;;;;;;;;;;;;;23.31;65.63;95901.50;608646;233;65060;-60
2021/12/06 02:44:35;;;;;;;;;;;;;;;23.32;67.62;95903.07;608681;233;67280;-60
2021/12/06 02:47:03;;;;;;;;;;;;;;;23.30;66.88;95883.82;608676;233;66898;-60
2021/12/06 02:49:30;;;;;;;;;;;;;;;23.28;67.45;95896.77;608690;233;65107;-60
2021/12/06 02:51:58;;;;;;;;;;;;;;;23.29;66.55;95882.25;608665;233;64726;-60
2021/12/06 02:54:27;;;;;;;;;;;;;;;23.28;66.72;95886.05;608661;233;66806;-60
2021/12/06 02:57:45;;;;;;;;;;;;;;;23.26;67.21;95873.73;608662;233;62801;-60
2021/12/06 02:59:25;;;;;;;;;;;;;;;23.26;67.39;95873.73;606384;233;67346;-60
2021/12/06 03:01:57;;;;;;;;;;;;;;;23.26;66.97;95879.09;608707;233;67349;-60
2021/12/06 03:04:25;;;;;;;;;;;;;;;23.25;66.61;95879.42;608660;233;65494;-60
2021/12/06 03:06:55;;;;;;;;;;;;;;;23.26;64.90;95862.22;608636;233;67185;-60
2021/12/06 03:09:24;;;;;;;;;;;;;;;23.25;65.15;95874.84;608643;233;67054;-60
2021/12/06 03:11:56;;;;;;;;;;;;;;;23.24;66.68;95881.31;608673;233;64965;-60
2021/12/06 03:14:26;;;;;;;;;;;;;;;23.24;66.96;95883.19;608642;233;67365;-60
2021/12/06 03:16:56;;;;;;;;;;;;;;;23.24;65.99;95891.22;608676;233;64437;-60
2021/12/06 03:19:24;;;;;;;;;;;;;;;23.25;65.79;95892.82;608663;233;65031;-60
2021/12/06 03:21:52;;;;;;;;;;;;;;;23.21;67.95;95879.23;608645;233;64991;-60
2021/12/06 03:24:20;;;;;;;;;;;;;;;23.20;68.01;95885.70;608713;233;66974;-60
2021/12/06 03:26:49;;;;;;;;;;;;;;;23.21;62.51;95879.23;608653;233;65049;-60
2021/12/06 03:29:17;;;;;;;;;;;;;;;23.21;66.04;95892.63;608691;233;65069;-60
2021/12/06 03:31:47;;;;;;;;;;;;;;;23.20;66.05;95887.60;608616;233;67827;-60
2021/12/06 03:34:15;;;;;;;;;;;;;;;23.19;65.69;95878.78;608660;233;64911;-60
2021/12/06 03:36:43;;;;;;;;;;;;;;;23.19;65.48;95867.24;608654;233;65024;-60
2021/12/06 03:39:20;;;;;;;;;;;;;;;23.19;65.53;95878.78;608626;233;45450;-60
2021/12/06 03:41:46;;;;;;;;;;;;;;;23.18;66.86;95871.03;608536;233;62131;-60
2021/12/06 03:44:14;;;;;;;;;;;;;;;23.17;67.19;95875.61;608725;233;67449;-60
2021/12/06 03:46:42;;;;;;;;;;;;;;;23.16;66.25;95874.05;608637;233;66899;-60
2021/12/06 03:49:14;;;;;;;;;;;;;;;23.16;63.04;95852.61;608636;233;63038;-60
2021/12/06 03:51:43;;;;;;;;;;;;;;;23.17;65.72;95848.81;602602;233;69156;-61
2021/12/06 03:54:12;;;;;;;;;;;;;;;23.16;66.41;95844.56;608549;233;67049;-60
2021/12/06 03:56:41;;;;;;;;;;;;;;;23.16;66.29;95839.20;608646;233;65055;-60
2021/12/06 03:59:08;;;;;;;;;;;;;;;23.15;65.40;95837.61;602686;233;66447;-60
2021/12/06 04:01:36;;;;;;;;;;;;;;;23.15;65.33;95842.97;608639;233;67484;-60
2021/12/06 04:04:05;;;;;;;;;;;;;;;23.15;67.11;95831.47;608645;233;62597;-60
2021/12/06 04:06:33;;;;;;;;;;;;;;;23.13;67.59;95829.09;608656;233;67184;-60
2021/12/06 04:09:01;;;;;;;;;;;;;;;23.11;65.95;95820.59;608628;233;65681;-63
2021/12/06 04:11:29;;;;;;;;;;;;;;;23.12;66.55;95824.84;608680;233;62764;-63
2021/12/06 04:13:58;;;;;;;;;;;;;;;23.13;62.68;95820.27;608663;233;67633;-63
2021/12/06 04:16:26;;;;;;;;;;;;;;;23.13;65.48;95821.05;608623;233;66925;-63
2021/12/06 04:18:54;;;;;;;;;;;;;;;23.12;65.71;95830.20;608628;233;62509;-63
2021/12/06 04:21:23;;;;;;;;;;;;;;;23.11;67.22;95815.23;608594;233;65752;-63
2021/12/06 04:23:51;;;;;;;;;;;;;;;23.09;67.53;95828.15;608697;233;66886;-63
2021/12/06 04:26:20;;;;;;;;;;;;;;;23.08;65.30;95823.91;608652;233;63712;-63
2021/12/06 04:28:56;;;;;;;;;;;;;;;23.07;67.89;95833.02;608654;233;67101;-63
2021/12/06 04:31:18;;;;;;;;;;;;;;;23.08;67.47;95833.81;608326;233;65988;-63
2021/12/06 04:33:45;;;;;;;;;;;;;;;23.07;67.30;95816.16;608621;233;65695;-64
2021/12/06 04:36:13;;;;;;;;;;;;;;;23.05;69.12;95819.14;608681;233;67164;-63
2021/12/06 04:38:41;;;;;;;;;;;;;;;23.04;68.55;95801.50;608634;233;65357;-63
2021/12/06 04:41:08;;;;;;;;;;;;;;;23.04;67.73;95809.54;608659;233;62747;-63
2021/12/06 04:43:36;;;;;;;;;;;;;;;23.03;68.58;95806.08;608653;233;67217;-63
2021/12/06 04:46:04;;;;;;;;;;;;;;;23.02;68.10;95809.84;608617;233;67460;-63
2021/12/06 04:48:32;;;;;;;;;;;;;;;23.02;69.49;95803.70;608627;233;63703;-63
2021/12/06 04:51:00;;;;;;;;;;;;;;;23.01;67.77;95815.52;608668;233;67174;-64
2021/12/06 04:53:36;;;;;;;;;;;;;;;23.01;67.26;95791.41;606572;233;67103;-64
2021/12/06 04:56:04;;;;;;;;;;;;;;;23.01;69.09;95796.77;605094;234;65237;-60
2021/12/06 04:58:33;;;;;;;;;;;;;;;23.00;69.71;95813.95;605051;234;67329;-62
2021/12/06 05:01:02;;;;;;;;;;;;;;;23.00;66.97;95822.00;605174;234;64521;-62
2021/12/06 05:03:30;;;;;;;;;;;;;;;22.99;69.26;95805.11;605262;232;64984;-61
2021/12/06 05:05:59;;;;;;;;;;;;;;;22.97;69.39;95807.33;605190;234;66760;-61
2021/12/06 05:08:28;;;;;;;;;;;;;;;22.99;68.00;95818.50;605206;234;67503;-61
2021/12/06 05:10:57;;;;;;;;;;;;;;;22.98;65.35;95803.54;605160;234;65199;-61
2021/12/06 05:13:26;;;;;;;;;;;;;;;22.97;68.26;95807.33;605118;234;67411;-62
2021/12/06 05:15:54;;;;;;;;;;;;;;;22.96;67.93;95796.91;605100;234;64787;-62
2021/12/06 05:18:22;;;;;;;;;;;;;;;22.95;68.88;95806.81;605248;234;65035;-62
2021/12/06 05:20:50;;;;;;;;;;;;;;;22.95;67.67;95809.50;605196;234;64564;-62
2021/12/06 05:23:18;;;;;;;;;;;;;;;22.94;67.64;95807.12;605197;234;66982;-62
2021/12/06 05:25:47;;;;;;;;;;;;;;;22.95;68.21;95792.64;605190;232;63089;-62
2021/12/06 05:28:15;;;;;;;;;;;;;;;22.95;69.29;95811.39;605273;234;65978;-61
2021/12/06 05:30:44;;;;;;;;;;;;;;;22.93;69.17;95790.26;605270;232;65133;-64
2021/12/06 05:33:18;;;;;;;;;;;;;;;22.94;70.14;95812.48;605223;234;65232;-64
2021/12/06 05:35:41;;;;;;;;;;;;;;;22.93;67.73;95829.66;605008;234;67217;-64
2021/12/06 05:38:09;;;;;;;;;;;;;;;22.92;67.88;95795.95;605207;234;67040;-64
2021/12/06 05:40:36;;;;;;;;;;;;;;;22.93;68.39;95818.95;605204;234;65044;-64
2021/12/06 05:43:04;;;;;;;;;;;;;;;22.94;68.52;95823.19;605287;234;67106;-64
2021/12/06 05:45:33;;;;;;;;;;;;;;;22.93;68.06;95805.55;605241;234;67164;-64
2021/12/06 05:48:00;;;;;;;;;;;;;;;22.93;70.04;95829.66;605233;234;64745;-64
2021/12/06 05:50:28;;;;;;;;;;;;;;;22.93;68.86;95810.91;605215;234;66976;-65
2021/12/06 05:52:56;;;;;;;;;;;;;;;22.93;68.25;95853.77;606435;233;64917;-64
2021/12/06 05:55:25;;;;;;;;;;;;;;;22.93;68.41;95835.80;608733;233;62756;-64
2021/12/06 05:57:52;;;;;;;;;;;;;;;22.91;68.00;95866.69;608718;233;67221;-64
2021/12/06 06:00:21;;;;;;;;;;;;;;;22.93;68.49;95864.48;608643;233;67196;-64
2021/12/06 06:02:49;;;;;;;;;;;;;;;22.92;68.08;95870.96;608665;233;65073;-64
2021/12/06 06:05:18;;;;;;;;;;;;;;;22.92;69.27;95857.56;608661;233;67067;-64
2021/12/06 06:07:46;;;;;;;;;;;;;;;22.92;68.52;95852.20;608637;233;65073;-64
2021/12/06 06:10:15;;;;;;;;;;;;;;;22.92;68.81;95874.42;608710;233;62943;-64
2021/12/06 06:12:43;;;;;;;;;;;;;;;22.93;69.06;95875.20;608681;233;64823;-64
2021/12/06 06:15:11;;;;;;;;;;;;;;;22.93;68.25;95859.91;608667;233;65003;-64
2021/12/06 06:17:43;;;;;;;;;;;;;;;22.93;68.30;95885.92;608677;233;64890;-64
2021/12/06 06:20:12;;;;;;;;;;;;;;;22.93;68.79;95870.63;608635;233;64632;-64
2021/12/06 06:22:41;;;;;;;;;;;;;;;22.94;68.99;95833.91;608589;233;64865;-64
2021/12/06 06:25:09;;;;;;;;;;;;;;;22.95;69.47;95886.41;608635;233;65046;-66
2021/12/06 06:27:37;;;;;;;;;;;;;;;22.95;69.29;95859.62;608672;233;67511;-64
2021/12/06 06:30:05;;;;;;;;;;;;;;;22.96;68.23;95885.33;608666;233;67023;-64
2021/12/06 06:32:32;;;;;;;;;;;;;;;22.96;69.77;95861.22;608636;233;65130;-64
2021/12/06 06:35:00;;;;;;;;;;;;;;;22.96;69.60;95879.97;608667;233;67048;-64
2021/12/06 06:37:28;;;;;;;;;;;;;;;22.97;68.96;95884.22;608643;233;67209;-64
2021/12/06 06:39:55;;;;;;;;;;;;;;;22.97;69.34;95881.53;608643;233;65069;-64
2021/12/06 06:42:23;;;;;;;;;;;;;;;22.97;68.92;95841.34;608695;233;66770;-64
2021/12/06 06:44:52;;;;;;;;;;;;;;;22.98;70.12;95862.48;608635;233;64641;-64
2021/12/06 06:47:20;;;;;;;;;;;;;;;22.99;69.07;95869.41;608630;233;65068;-64
2021/12/06 06:49:49;;;;;;;;;;;;;;;23.00;69.16;95827.35;608470;233;67054;-64
2021/12/06 06:52:17;;;;;;;;;;;;;;;23.00;68.88;95846.11;608649;233;66823;-64
2021/12/06 06:54:45;;;;;;;;;;;;;;;23.01;69.36;95839.64;608690;233;65012;-64
2021/12/06 06:57:12;;;;;;;;;;;;;;;23.01;68.33;95863.75;608682;233;66919;-65
2021/12/06 06:59:40;;;;;;;;;;;;;;;23.02;67.95;95830.48;608640;233;64726;-64
2021/12/06 07:02:08;;;;;;;;;;;;;;;23.02;67.99;95847.34;608331;233;62752;-65
2021/12/06 07:04:36;;;;;;;;;;;;;;;23.04;68.37;95836.33;608187;233;67859;-67
2021/12/06 07:07:03;;;;;;;;;;;;;;;23.05;68.41;95824.50;608142;233;66804;-64
2021/12/06 07:09:31;;;;;;;;;;;;;;;23.02;67.27;95830.48;608287;233;64875;-64
2021/12/06 07:11:59;;;;;;;;;;;;;;;23.07;67.19;95802.77;607505;233;67357;-66
2021/12/06 07:14:27;;;;;;;;;;;;;;;23.12;61.41;95822.16;607748;233;67437;-66
2021/12/06 07:16:55;;;;;;;;;;;;;;;23.19;61.80;95811.77;608190;233;65047;-66
2021/12/06 07:19:22;;;;;;;;;;;;;;;23.25;61.23;95829.27;608307;233;68316;-65
2021/12/06 07:21:50;;;;;;;;;;;;;;;23.28;60.92;95832.44;607774;233;64853;-64
2021/12/06 07:24:17;;;;;;;;;;;;;;;23.28;61.03;95832.44;607632;233;62735;-64
2021/12/06 07:26:45;;;;;;;;;;;;;;;23.32;60.80;95833.38;607773;233;64911;-65
2021/12/06 07:29:12;;;;;;;;;;;;;;;23.35;60.98;95825.48;608392;233;64818;-64
2021/12/06 07:31:40;;;;;;;;;;;;;;;23.32;61.10;95819.97;608110;233;62712;-64
2021/12/06 07:34:07;;;;;;;;;;;;;;;23.33;62.96;95810.84;608177;233;64609;-64
2021/12/06 07:36:35;;;;;;;;;;;;;;;23.37;60.62;95809.09;607982;233;64913;-64
2021/12/06 07:39:03;;;;;;;;;;;;;;;23.38;60.34;95806.11;608135;233;63885;-64
2021/12/06 07:41:31;;;;;;;;;;;;;;;23.40;60.85;95821.87;608581;233;65206;-63
2021/12/06 07:43:58;;;;;;;;;;;;;;;23.40;61.85;95806.56;608620;233;64918;-64
2021/12/06 07:46:26;;;;;;;;;;;;;;;23.42;60.78;95808.94;608512;233;62798;-66
2021/12/06 07:48:54;;;;;;;;;;;;;;;23.41;60.64;95810.84;608610;233;64469;-63
2021/12/06 07:51:25;;;;;;;;;;;;;;;23.42;62.44;95809.72;608470;233;67067;-65
2021/12/06 07:53:53;;;;;;;;;;;;;;;23.43;61.39;95819.34;609848;232;64879;-64
2021/12/06 07:56:21;;;;;;;;;;;;;;;23.48;60.91;95821.86;610386;232;67327;-63
2021/12/06 07:58:48;;;;;;;;;;;;;;;23.44;58.17;95823.61;610394;232;67024;-63
2021/12/06 08:01:16;;;;;;;;;;;;;;;23.42;62.02;95827.70;610379;232;64891;-63
2021/12/06 08:03:44;;;;;;;;;;;;;;;23.42;62.73;95849.16;610383;232;67252;-63
2021/12/06 08:06:12;;;;;;;;;;;;;;;23.43;63.05;95823.91;610377;232;67029;-64
2021/12/06 08:08:40;;;;;;;;;;;;;;;23.46;62.28;95847.41;610311;232;64834;-63
2021/12/06 08:11:12;;;;;;;;;;;;;;;23.47;60.52;95836.38;603922;232;67048;-64
2021/12/06 08:13:41;;;;;;;;;;;;;;;23.51;60.47;95825.02;610406;232;64427;-64
2021/12/06 08:16:10;;;;;;;;;;;;;;;23.56;61.40;95822.19;610409;232;65120;-64
2021/12/06 08:18:38;;;;;;;;;;;;;;;23.55;58.83;95834.03;610363;232;67440;-64
2021/12/06 08:21:07;;;;;;;;;;;;;;;23.60;59.76;95841.89;610405;232;64470;-64
2021/12/06 08:23:35;;;;;;;;;;;;;;;23.62;59.08;95853.88;610335;232;65100;-66
2021/12/06 08:26:04;;;;;;;;;;;;;;;23.62;61.05;95810.19;610343;232;67232;-66
2021/12/06 08:28:34;;;;;;;;;;;;;;;23.63;60.52;95836.70;610254;232;67324;-64
2021/12/06 08:31:01;;;;;;;;;;;;;;;23.59;60.13;95833.06;610374;232;65044;-66
2021/12/06 08:33:29;;;;;;;;;;;;;;;23.63;59.87;95838.61;610381;232;65072;-65
2021/12/06 08:35:57;;;;;;;;;;;;;;;23.67;60.30;95839.53;609988;232;64829;-64
2021/12/06 08:38:26;;;;;;;;;;;;;;;23.68;61.36;95846.47;609720;232;62750;-66
2021/12/06 08:40:55;;;;;;;;;;;;;;;23.68;62.43;95847.28;610452;232;67152;-65
2021/12/06 08:43:23;;;;;;;;;;;;;;;23.70;62.26;95846.95;610361;232;64826;-64
2021/12/06 08:45:52;;;;;;;;;;;;;;;23.66;61.37;95854.06;610385;232;62968;-66
2021/12/06 08:48:22;;;;;;;;;;;;;;;23.66;60.95;95865.58;610237;232;65441;-64
2021/12/06 08:50:50;;;;;;;;;;;;;;;23.68;61.25;95849.96;610261;232;66877;-66
2021/12/06 08:53:17;;;;;;;;;;;;;;;23.72;61.06;95844.77;605988;232;65146;-66
2021/12/06 08:55:45;;;;;;;;;;;;;;;23.75;60.91;95843.35;605181;234;67275;-63
2021/12/06 08:58:12;;;;;;;;;;;;;;;23.63;59.79;95834.02;605048;234;67006;-66
2021/12/06 09:00:40;;;;;;;;;;;;;;;23.69;60.37;95834.66;605036;232;62987;-64
2021/12/06 09:03:08;;;;;;;;;;;;;;;23.72;61.00;95841.31;605094;234;65020;-67
2021/12/06 09:05:37;;;;;;;;;;;;;;;23.73;60.48;95843.66;605075;234;64826;-65
2021/12/06 09:08:04;;;;;;;;;;;;;;;23.72;60.47;95843.98;605131;233;62889;-65
2021/12/06 09:10:32;;;;;;;;;;;;;;;23.76;60.12;95839.55;605030;234;67251;-68
2021/12/06 09:13:00;;;;;;;;;;;;;;;23.76;59.79;95826.14;604742;234;67032;-70
2021/12/06 09:15:28;;;;;;;;;;;;;;;23.75;59.71;95819.99;604410;234;63908;-67
2021/12/06 09:17:56;;;;;;;;;;;;;;;23.78;60.18;95823.94;605095;234;64945;-66
2021/12/06 09:20:25;;;;;;;;;;;;;;;23.82;59.73;95822.21;605077;234;64934;-67
2021/12/06 09:22:53;;;;;;;;;;;;;;;23.82;59.84;95816.84;605045;234;64943;-67
2021/12/06 09:25:21;;;;;;;;;;;;;;;23.82;60.67;95825.67;604973;234;65874;-66
2021/12/06 09:27:49;;;;;;;;;;;;;;;23.82;60.30;95822.21;605131;234;64954;-66
2021/12/06 09:30:18;;;;;;;;;;;;;;;23.81;60.27;95797.25;605061;234;65106;-68
2021/12/06 09:32:45;;;;;;;;;;;;;;;23.82;60.52;95801.53;605041;234;65859;-66
2021/12/06 09:35:18;;;;;;;;;;;;;;;23.86;61.46;95812.41;605163;234;64462;-66
2021/12/06 09:37:44;;;;;;;;;;;;;;;23.83;60.24;95805.78;604965;234;62810;-65
2021/12/06 09:40:15;;;;;;;;;;;;;;;23.76;60.67;95808.14;605019;234;68021;-66
2021/12/06 09:42:44;;;;;;;;;;;;;;;23.77;60.98;95815.11;605095;234;65393;-64
2021/12/06 09:45:13;;;;;;;;;;;;;;;23.75;60.72;95811.16;598353;236;63075;-68
2021/12/06 09:47:45;;;;;;;;;;;;;;;23.79;60.75;95798.67;604999;234;67144;-65
2021/12/06 09:50:10;;;;;;;;;;;;;;;23.79;61.44;95793.31;605034;233;67139;-69
2021/12/06 09:52:38;;;;;;;;;;;;;;;23.81;60.76;95793.79;604999;234;65086;-68
2021/12/06 09:55:05;;;;;;;;;;;;;;;23.78;60.67;95775.66;605050;234;67281;-65
2021/12/06 09:57:33;;;;;;;;;;;;;;;23.81;60.61;95781.16;605079;234;67104;-69
2021/12/06 10:00:04;;;;;;;;;;;;;;;23.81;60.87;95775.02;605219;232;43923;-65
2021/12/06 10:02:31;;;;;;;;;;;;;;;23.77;60.19;95772.19;601719;236;66603;-65
2021/12/06 10:04:59;;;;;;;;;;;;;;;23.78;60.21;95764.92;601777;236;64992;-63
2021/12/06 10:07:27;;;;;;;;;;;;;;;23.78;59.81;95775.66;601713;236;65207;-62
2021/12/06 10:09:55;;;;;;;;;;;;;;;23.76;58.76;95770.59;601651;236;67504;-67
2021/12/06 10:12:23;;;;;;;;;;;;;;;23.80;59.33;95779.59;601743;235;64958;-65
2021/12/06 10:14:50;;;;;;;;;;;;;;;23.81;59.83;95775.80;601822;235;62745;-68
2021/12/06 10:17:19;;;;;;;;;;;;;;;23.85;59.52;95771.37;601707;235;64849;-68
2021/12/06 10:19:48;;;;;;;;;;;;;;;23.86;59.73;95764.11;601731;235;67886;-68
2021/12/06 10:22:15;;;;;;;;;;;;;;;23.85;59.69;95757.97;601772;235;65039;-68
2021/12/06 10:24:45;;;;;;;;;;;;;;;23.88;59.58;95748.48;601713;235;67068;-69
2021/12/06 10:27:11;;;;;;;;;;;;;;;;;;601621;235;64645;-67
2021/12/06 10:29:53;;;;;;;;;;;;;;;23.88;59.59;95740.44;601779;235;65118;-68
2021/12/06 10:32:25;;;;;;;;;;;;;;;23.88;60.17;95738.55;601398;235;67308;-67
2021/12/06 10:34:52;;;;;;;;;;;;;;;;;;601599;235;66989;-67
2021/12/06 10:37:30;;;;;;;;;;;;;;;23.93;60.35;95751.79;601789;235;65012;-66
2021/12/06 10:39:58;;;;;;;;;;;;;;;23.91;60.78;95740.58;601808;235;64828;-67
2021/12/06 10:42:27;;;;;;;;;;;;;;;23.92;59.97;95736.00;601812;235;64945;-68
2021/12/06 10:44:54;;;;;;;;;;;;;;;23.92;60.90;95744.05;601561;235;62877;-67
2021/12/06 10:47:22;;;;;;;;;;;;;;;23.95;60.46;95742.63;601826;235;67224;-67
2021/12/06 10:49:50;;;;;;;;;;;;;;;23.94;60.35;95731.11;601796;235;66581;-68
2021/12/06 10:52:28;;;;;;;;;;;;;;;23.93;60.68;95724.95;601824;235;62812;-68
2021/12/06 10:54:55;;;;;;;;;;;;;;;23.95;60.77;95713.89;602560;235;66951;-67
2021/12/06 10:57:23;;;;;;;;;;;;;;;23.96;60.77;95712.80;602614;235;66894;-68
2021/12/06 10:59:50;;;;;;;;;;;;;;;23.96;60.86;95718.16;602523;235;62951;-68
2021/12/06 11:02:18;;;;;;;;;;;;;;;23.96;60.41;95718.16;602511;235;64299;-66
2021/12/06 11:04:48;;;;;;;;;;;;;;;23.97;60.61;95733.14;602533;235;66734;-68
2021/12/06 11:07:15;;;;;;;;;;;;;;;23.96;60.74;95728.89;602459;235;65015;-69
2021/12/06 11:09:43;;;;;;;;;;;;;;;23.97;61.31;95741.19;602589;235;66610;-67
2021/12/06 11:12:12;;;;;;;;;;;;;;;23.96;61.41;95718.16;602475;235;66967;-69
2021/12/06 11:14:41;;;;;;;;;;;;;;;23.97;61.30;95700.95;602282;235;65046;-67
2021/12/06 11:17:10;;;;;;;;;;;;;;;23.98;61.39;95696.36;602545;235;67009;-67
2021/12/06 11:19:38;;;;;;;;;;;;;;;23.96;60.88;95704.75;602519;235;67067;-67
2021/12/06 11:22:07;;;;;;;;;;;;;;;23.99;61.06;95706.00;602562;235;65101;-67
2021/12/06 11:24:39;;;;;;;;;;;;;;;23.98;60.74;95707.91;602556;235;68436;-67
2021/12/06 11:27:06;;;;;;;;;;;;;;;23.99;61.46;95706.00;602376;235;69706;-67
2021/12/06 11:29:35;;;;;;;;;;;;;;;23.99;62.39;95701.41;602905;235;62971;-68
2021/12/06 11:32:07;;;;;;;;;;;;;;;24.00;63.55;95686.09;603500;235;67319;-68
2021/12/06 11:34:37;;;;;;;;;;;;;;;24.01;61.74;95701.08;603651;235;66898;-68
2021/12/06 11:37:06;;;;;;;;;;;;;;;23.99;62.72;95693.36;603749;235;63015;-65
2021/12/06 11:39:33;;;;;;;;;;;;;;;23.99;63.24;95704.10;603708;235;64810;-65
2021/12/06 11:42:01;;;;;;;;;;;;;;;24.01;62.72;95688.47;603782;235;64910;-66
2021/12/06 11:44:29;;;;;;;;;;;;;;;24.02;62.11;95684.67;603861;235;62786;-66
2021/12/06 11:47:01;;;;;;;;;;;;;;;24.02;61.54;95708.81;603771;235;67167;-66
2021/12/06 11:49:39;;;;;;;;;;;;;;;24.04;62.13;95703.14;603837;235;66897;-66
2021/12/06 11:52:08;;;;;;;;;;;;;;;24.03;61.78;95688.91;603730;235;62820;-65
2021/12/06 11:54:37;;;;;;;;;;;;;;;24.07;61.40;95697.13;608089;233;67230;-65
2021/12/06 11:57:19;;;;;;;;;;;;;;;24.05;61.49;95700.13;607952;233;67084;-68
2021/12/06 11:59:51;;;;;;;;;;;;;;;24.06;62.09;95693.66;607867;233;63798;-68
2021/12/06 12:02:19;;;;;;;;;;;;;;;24.07;61.58;95692.55;607874;233;67274;-68
2021/12/06 12:04:47;;;;;;;;;;;;;;;24.06;60.92;95688.30;607751;233;64968;-65
2021/12/06 12:07:14;;;;;;;;;;;;;;;24.07;61.22;95697.91;608154;233;62934;-65
2021/12/06 12:09:42;;;;;;;;;;;;;;;24.07;61.59;95692.55;608050;233;65139;-65
2021/12/06 12:12:12;;;;;;;;;;;;;;;24.08;61.22;95683.38;608008;233;65325;-64
2021/12/06 12:14:44;;;;;;;;;;;;;;;24.06;60.71;95674.88;608080;233;64930;-67
2021/12/06 12:17:13;;;;;;;;;;;;;;;24.09;59.77;95686.84;608004;233;67224;-66
2021/12/06 12:19:41;;;;;;;;;;;;;;;24.07;61.09;95681.80;608072;233;67157;-66
2021/12/06 12:22:09;;;;;;;;;;;;;;;24.08;60.48;95683.38;608029;233;65098;-66
2021/12/06 12:24:40;;;;;;;;;;;;;;;24.08;60.63;95682.59;607842;233;64889;-66
2021/12/06 12:28:03;;;;;;;;;;;;;;;24.07;59.56;95679.13;607789;233;67104;-66
2021/12/06 12:29:38;;;;;;;;;;;;;;;24.09;61.12;95686.84;600162;230;65337;-66
2021/12/06 12:32:06;;;;;;;;;;;;;;;24.08;61.37;95699.47;608111;233;66879;-66
2021/12/06 12:34:35;;;;;;;;;;;;;;;24.10;59.32;95705.31;608118;233;67060;-67
2021/12/06 12:37:04;;;;;;;;;;;;;;;24.11;59.25;95712.25;608038;233;65126;-66
2021/12/06 12:39:31;;;;;;;;;;;;;;;24.10;60.39;95699.95;608026;233;67330;-66
2021/12/06 12:42:00;;;;;;;;;;;;;;;24.10;59.43;95707.22;608084;233;67000;-66
2021/12/06 12:44:35;;;;;;;;;;;;;;;24.11;59.73;95701.51;608075;233;65166;-67
2021/12/06 12:47:04;;;;;;;;;;;;;;;24.11;59.67;95711.46;606965;233;67273;-67
2021/12/06 12:49:32;;;;;;;;;;;;;;;24.11;59.58;95706.88;607699;233;64843;-67
2021/12/06 12:52:00;;;;;;;;;;;;;;;24.11;59.93;95693.45;608054;233;62759;-68
2021/12/06 12:54:31;;;;;;;;;;;;;;;24.08;62.47;95691.42;606461;231;67314;-67
2021/12/06 12:57:06;;;;;;;;;;;;;;;24.08;60.61;95702.16;606542;234;67146;-68
2021/12/06 12:59:35;;;;;;;;;;;;;;;24.09;61.13;95701.06;606440;234;65049;-66